Skip Navigation Links
NOAA logo - Click to go to the NOAA homepage
NOAA's National Weather Service
Alaska Aviation Weather Unit
  NWS logo - Click to go to the NWS homepage
Left Navbar Graphic     12 AKDT = 20 GMT

   
NOAA is celebrating 200 years of science, service, and stewardship. Visit the NOAA 200th celebration Web site to learn more.
USA.gov is the U.S. Government's official Web portal to all Federal, state and local government Web resources and services.
Facebook
NWS on Facebook

Important Change Regarding the AAWU Web Presence

 

Over the last several months, the AAWU has been working to navigate its webpages to a nationally supported server. Security, as well as other needs, have necessitated the change.  We have been given an extension for the site changeover while we diligently work at addressing feedback received. As of July 14, 2017, aawu.arh.noaa.gov will be discontinued. The new AAWU web address is weather.gov/aawu. It is now live and will run in-parallel with the old site until it is discontinued on July 14, 2017. Please continue to send any feedback or questions regarding the new webpages to nws.ar.aawu.webauthors@noaa.gov.  Thank you for your patience during this time of transition.
AAWU Home :: Display TAF Add Bookmark
SPECI PAIG 251420Z AUTO 21004KT 10SM OVC004 12/12 A3002 RMK AO2 CIG
     003V007 $=

SPECI PAIG 251445Z AUTO 21004KT 2 1/2SM BR OVC004 12/12 A3002 RMK AO2
     $=

METAR PAIG 251456Z AUTO 21004KT 4SM BR OVC004 12/12 A3002 RMK AO2 SLP175
     60000 T01170117 56003 $=

SPECI PAIG 251540Z AUTO 22003KT 10SM SCT004 OVC017 12/12 A3001 RMK AO2
     $=

METAR PAIG 251556Z AUTO 20003KT 10SM BKN006 OVC017 12/12 A3001 RMK AO2
     CIG 003V009 SLP172 T01220117 $=

SPECI PAIG 251627Z AUTO 00000KT 10SM SCT006 BKN010 OVC015 12/12 A3001
     RMK AO2 $=

SPECI PAIG 251634Z AUTO 00000KT 10SM FEW006 SCT010 OVC015 12/12 A3000
     RMK AO2 $=

METAR PAIG 251656Z AUTO 00000KT 10SM SCT005 SCT010 OVC015 13/12 A3000
     RMK AO2 SLP170 T01280117 $=

SPECI PAIG 251716Z AUTO 00000KT 10SM FEW005 BKN009 OVC017 13/12 A3000
     RMK AO2 CIG 008V011 $=

SPECI PAIG 251731Z AUTO 12004KT 10SM SCT009 OVC015 13/12 A2999 RMK AO2
     $=

SPECI PAIG 251742Z AUTO 13003KT 10SM OVC012 13/12 A2999 RMK AO2 $=

METAR PAIG 251756Z AUTO 13003KT 10SM OVC012 13/12 A2999 RMK AO2 SLP167
     60000 T01330117 10133 20117 56008 $=

METAR PAIG 251856Z AUTO 18008KT 10SM OVC012 13/11 A2999 RMK AO2
 SLP166 T01330111 $=

SPECI PAIG 251939Z AUTO 18008KT 2 1/2SM -RA BR BKN008 BKN015 OVC020
 13/12 A2999 RMK AO2 VIS 1 3/4V5 RAB12 CIG 005V009 P0000 $=

METAR PAIG 251956Z AUTO 18006KT 3SM -RA BR BKN006 OVC021 13/12 A2998 RMK
     AO2 RAB12 CIG 004V010 SLP164 P0000 T01280122 $=

SPECI PAIG 252006Z AUTO 17007KT 2SM -RA BR OVC006 13/13 A2998 RMK AO2
     VIS 1 3/4V2 1/2 CIG 004V008 P0000 $=

SPECI PAIG 252018Z AUTO 17010KT 4SM -RA BR BKN006 OVC016 13/12 A2998
 RMK AO2 CIG 004V009 P0000 $=

SPECI PAIG 252042Z AUTO 17010KT 7SM -RA FEW006 BKN011 OVC017 13/13
 A2998 RMK AO2 P0000 $=


NOAA's National Weather Service
Alaska Aviation Weather Unit
6930 Sand Lake Road
Anchorage, AK 99502-1845
Disclaimer
Credits
Glossary
Privacy Policy
About Us
Career Opportunities
Contact AAWU Internet Services Site last modified: April, 17th 2012